Time;durP1;ratioP1;P1;durP2;ratioP2;P2;SDS_P1;SDS_P2;PMS_P1;PMS_P2;Temp;Humidity;BMP_temperature;BMP_pressure;BME280_temperature;BME280_humidity;BME280_pressure;Samples;Min_cycle;Max_cycle;Signal;HPM_P1;HPM_P2
2023/03/31 00:01:40;;;;;;;4.82;0.82;;;11.70;99.90;;;;;;4972074;28;20146;-69
2023/03/31 00:04:08;;;;;;;4.10;0.73;;;11.60;99.90;;;;;;4964200;28;20033;-68
2023/03/31 00:06:40;;;;;;;1.35;0.60;;;11.50;99.90;;;;;;4971808;28;20034;-68
2023/03/31 00:09:12;;;;;;;3.08;0.75;;;11.50;99.90;;;;;;4965604;28;20110;-69
2023/03/31 00:11:39;;;;;;;1.63;0.55;;;11.40;99.90;;;;;;4971829;28;20038;-68
2023/03/31 00:14:07;;;;;;;3.45;0.98;;;11.40;99.90;;;;;;4964954;28;20519;-68
2023/03/31 00:16:37;;;;;;;0.70;0.30;;;11.40;99.90;;;;;;4971784;28;20044;-69
2023/03/31 00:19:04;;;;;;;0.47;0.40;;;11.50;99.90;;;;;;4965232;28;20293;-68
2023/03/31 00:21:35;;;;;;;1.42;0.77;;;11.60;99.90;;;;;;4971558;28;20058;-69
2023/03/31 00:24:10;;;;;;;0.47;0.22;;;11.60;99.90;;;;;;4963967;28;20479;-69
2023/03/31 00:26:36;;;;;;;0.63;0.25;;;11.50;99.90;;;;;;4971377;28;20056;-68
2023/03/31 00:29:05;;;;;;;2.92;0.70;;;11.50;99.90;;;;;;4963978;28;20106;-68
2023/03/31 00:31:32;;;;;;;0.55;0.45;;;11.50;99.90;;;;;;4971301;28;20030;-68
2023/03/31 00:33:58;;;;;;;3.13;0.95;;;11.50;99.90;;;;;;4964889;28;20027;-68
2023/03/31 00:36:27;;;;;;;1.40;0.50;;;11.50;99.90;;;;;;4973057;28;20038;-68
2023/03/31 00:38:57;;;;;;;1.55;0.65;;;11.50;99.90;;;;;;4972048;28;20031;-68
2023/03/31 00:41:23;;;;;;;2.17;0.55;;;11.50;99.90;;;;;;4971341;28;20031;-69
2023/03/31 00:44:21;;;;;;;1.63;0.50;;;11.60;99.90;;;;;;4951889;29;20094;-69
2023/03/31 00:47:06;;;;;;;1.70;0.45;;;11.60;99.90;;;;;;4956998;28;20026;-68
2023/03/31 00:49:49;;;;;;;4.32;1.00;;;11.60;99.90;;;;;;4979833;28;20110;-68
2023/03/31 00:52:36;;;;;;;0.80;0.35;;;11.60;99.90;;;;;;4966064;28;20506;-68
2023/03/31 00:55:09;;;;;;;2.03;0.75;;;11.60;99.90;;;;;;4964121;28;20047;-68
2023/03/31 00:57:39;;;;;;;9.43;1.02;;;11.50;99.90;;;;;;4967508;28;20029;-69
2023/03/31 01:00:14;;;;;;;5.55;0.90;;;11.50;99.90;;;;;;4958434;28;20030;-68
2023/03/31 01:02:51;;;;;;;1.75;0.68;;;11.40;99.90;;;;;;4960484;28;20510;-68
2023/03/31 01:05:27;;;;;;;0.90;0.60;;;11.50;99.90;;;;;;4963342;28;20030;-69
2023/03/31 01:07:54;;;;;;;1.02;0.43;;;11.50;99.90;;;;;;4977004;28;20483;-69
2023/03/31 01:10:21;;;;;;;2.55;1.02;;;11.70;99.90;;;;;;4985891;28;20038;-69
2023/03/31 01:12:52;;;;;;;1.13;0.77;;;11.80;99.90;;;;;;4968595;28;20074;-69
2023/03/31 01:15:19;;;;;;;2.85;0.68;;;11.80;99.90;;;;;;4966867;28;20682;-69
2023/03/31 01:17:46;;;;;;;1.02;0.50;;;11.90;99.90;;;;;;4968443;28;20030;-69
2023/03/31 01:21:05;;;;;;;2.25;0.95;;;11.90;99.90;;;;;;4957989;28;20031;-69
2023/03/31 01:23:58;;;;;;;2.03;0.65;;;11.80;99.90;;;;;;4968423;28;20053;-69
2023/03/31 01:27:21;;;;;;;0.65;0.50;;;11.70;99.90;;;;;;4971691;28;20586;-69
2023/03/31 01:30:19;;;;;;;10.02;1.40;;;11.50;99.90;;;;;;4960008;28;20047;-69
2023/03/31 01:32:59;;;;;;;2.63;1.33;;;11.40;99.90;;;;;;4958959;28;20047;-68
2023/03/31 01:36:10;;;;;;;3.42;1.13;;;11.30;99.90;;;;;;4956566;28;20043;-69
2023/03/31 01:39:12;;;;;;;3.55;0.73;;;11.30;99.90;;;;;;4968188;28;20050;-68
2023/03/31 01:42:03;;;;;;;3.97;1.00;;;11.30;99.90;;;;;;4962821;28;20435;-69
2023/03/31 01:45:26;;;;;;;2.43;1.17;;;11.30;99.90;;;;;;4964190;28;20037;-69
2023/03/31 01:48:20;;;;;;;3.22;0.40;;;11.30;99.90;;;;;;4965175;28;20138;-68
2023/03/31 01:51:01;;;;;;;3.95;1.05;;;11.40;99.90;;;;;;4970548;28;20034;-68
2023/03/31 01:53:47;;;;;;;2.78;1.02;;;11.50;99.90;;;;;;4968592;28;20479;-69
2023/03/31 01:56:31;;;;;;;1.25;0.57;;;11.60;99.90;;;;;;4951926;28;20031;-68
2023/03/31 01:59:10;;;;;;;1.75;0.55;;;11.80;99.90;;;;;;4981282;28;20027;-68
2023/03/31 02:01:51;;;;;;;3.53;0.63;;;12.00;99.90;;;;;;4955255;28;20518;-68
2023/03/31 02:04:42;;;;;;;6.80;0.98;;;12.10;99.90;;;;;;4962480;28;20501;-68
2023/03/31 02:07:28;;;;;;;2.05;0.52;;;12.30;99.90;;;;;;4971865;28;20035;-69
2023/03/31 02:09:59;;;;;;;1.13;0.40;;;12.40;99.90;;;;;;4959210;28;20039;-68
2023/03/31 02:12:28;;;;;;;;;;;12.40;99.90;;;;;;4965661;28;20570;-68
2023/03/31 02:14:56;;;;;;;2.45;0.55;;;12.40;99.90;;;;;;4979931;28;19980;-68
2023/03/31 02:17:39;;;;;;;4.25;0.43;;;12.50;99.90;;;;;;4986078;28;20122;-69
2023/03/31 02:20:14;;;;;;;1.95;0.82;;;12.50;99.90;;;;;;4964619;28;20050;-68
2023/03/31 02:22:47;;;;;;;2.53;1.00;;;12.40;99.90;;;;;;4969026;28;20368;-69
2023/03/31 02:25:18;;;;;;;4.53;0.68;;;12.50;99.90;;;;;;4966322;28;20031;-68
2023/03/31 02:27:55;;;;;;;5.43;0.70;;;12.30;99.90;;;;;;4967607;28;20539;-68
2023/03/31 02:30:21;;;;;;;0.52;0.30;;;12.30;99.90;;;;;;4956451;28;20496;-68
2023/03/31 02:32:46;;;;;;;1.27;0.30;;;12.30;99.90;;;;;;4961938;28;20398;-68
2023/03/31 02:35:17;;;;;;;8.30;0.90;;;12.30;99.90;;;;;;4955707;28;20035;-68
2023/03/31 02:37:45;;;;;;;1.17;0.38;;;12.40;99.90;;;;;;4964709;28;20039;-68
2023/03/31 02:40:20;;;;;;;2.50;0.75;;;12.40;99.90;;;;;;4961201;28;20066;-68
2023/03/31 02:42:47;;;;;;;2.50;0.47;;;12.40;99.90;;;;;;4964143;23;20055;-69
2023/03/31 02:45:52;;;;;;;1.80;0.98;;;12.30;99.90;;;;;;4957472;28;20036;-71
2023/03/31 02:48:34;;;;;;;1.20;0.40;;;12.30;99.90;;;;;;4943214;29;20043;-69
2023/03/31 02:51:25;;;;;;;3.83;0.80;;;12.40;99.90;;;;;;4944594;29;20039;-69
2023/03/31 02:54:14;;;;;;;4.63;0.47;;;12.40;99.90;;;;;;4924858;29;20040;-69
2023/03/31 02:57:03;;;;;;;3.72;0.75;;;12.40;99.90;;;;;;4926269;29;20044;-70
2023/03/31 03:00:09;;;;;;;2.92;0.40;;;12.40;99.90;;;;;;4923019;29;20078;-70
2023/03/31 03:02:44;;;;;;;1.35;0.52;;;12.40;99.90;;;;;;4920240;29;20583;-70
2023/03/31 03:06:06;;;;;;;0.85;0.50;;;12.40;99.90;;;;;;4922566;29;20054;-70
2023/03/31 03:08:54;;;;;;;2.97;0.80;;;12.30;99.90;;;;;;4920894;29;20038;-70
2023/03/31 03:11:36;;;;;;;2.30;0.70;;;12.40;99.90;;;;;;4925537;29;20200;-69
2023/03/31 03:14:16;;;;;;;1.75;0.52;;;12.30;99.90;;;;;;4924629;29;20044;-71
2023/03/31 03:16:55;;;;;;;7.93;0.98;;;12.40;99.90;;;;;;4925871;29;20040;-69
2023/03/31 03:19:22;;;;;;;4.57;1.17;;;12.40;99.90;;;;;;4924290;29;20052;-69
2023/03/31 03:21:48;;;;;;;0.45;0.30;;;12.30;99.90;;;;;;4941279;29;20034;-68
2023/03/31 03:24:16;;;;;;;0.80;0.45;;;12.30;99.90;;;;;;4926875;29;20120;-70
2023/03/31 03:26:44;;;;;;;1.83;0.60;;;12.30;99.90;;;;;;4930229;29;20377;-70
2023/03/31 03:29:13;;;;;;;1.30;0.73;;;12.30;99.90;;;;;;4947429;29;20103;-71
2023/03/31 03:31:40;;;;;;;1.10;0.75;;;12.30;99.90;;;;;;4947559;29;20027;-70
2023/03/31 03:34:08;;;;;;;4.35;1.40;;;12.20;99.90;;;;;;4948752;29;20464;-70
2023/03/31 03:36:36;;;;;;;3.10;0.60;;;12.20;99.90;;;;;;4947432;28;20115;-69
2023/03/31 03:39:03;;;;;;;2.78;0.57;;;12.10;99.90;;;;;;4931313;29;20562;-69
2023/03/31 03:41:30;;;;;;;1.30;0.57;;;12.10;99.90;;;;;;4929547;29;20039;-70
2023/03/31 03:43:56;;;;;;;2.92;0.75;;;12.10;99.90;;;;;;4943494;29;20031;-69
2023/03/31 03:46:21;;;;;;;4.32;0.55;;;12.00;99.90;;;;;;4928397;29;20030;-70
2023/03/31 03:48:47;;;;;;;1.88;0.35;;;12.00;99.90;;;;;;4943892;28;20035;-69
2023/03/31 03:51:13;;;;;;;3.25;0.40;;;11.80;99.90;;;;;;4925232;29;20484;-69
2023/03/31 03:53:39;;;;;;;5.05;0.95;;;11.70;99.90;;;;;;4925870;29;20047;-69
2023/03/31 03:56:05;;;;;;;2.40;0.60;;;11.60;99.90;;;;;;4932535;29;20075;-69
2023/03/31 03:58:31;;;;;;;1.35;0.13;;;11.60;99.90;;;;;;4941003;29;20039;-70
2023/03/31 04:00:56;;;;;;;0.85;0.30;;;11.50;99.90;;;;;;4929549;29;20041;-69
2023/03/31 04:03:22;;;;;;;5.65;1.23;;;11.50;99.90;;;;;;4934946;29;20079;-68
2023/03/31 04:05:48;;;;;;;1.48;0.57;;;11.50;99.90;;;;;;4934405;29;20032;-69
2023/03/31 04:08:14;;;;;;;1.90;0.43;;;11.50;99.90;;;;;;4935307;29;20024;-69
2023/03/31 04:10:47;;;;;;;0.77;0.25;;;11.50;99.90;;;;;;4934201;29;20111;-70
2023/03/31 04:13:14;;;;;;;2.97;1.45;;;11.40;99.90;;;;;;4932601;29;20027;-70
2023/03/31 04:15:41;;;;;;;1.05;0.57;;;11.30;99.90;;;;;;4931401;29;20051;-70
2023/03/31 04:18:09;;;;;;;0.90;0.47;;;11.20;99.90;;;;;;4928428;29;20503;-69
2023/03/31 04:20:36;;;;;;;5.32;0.75;;;11.20;99.90;;;;;;4931397;29;20063;-70
2023/03/31 04:23:08;;;;;;;2.05;0.55;;;11.20;99.90;;;;;;4946708;29;20497;-69
2023/03/31 04:25:37;;;;;;;6.13;0.75;;;11.20;99.90;;;;;;4933694;29;20035;-69
2023/03/31 04:28:05;;;;;;;0.40;0.28;;;11.20;99.90;;;;;;4946899;29;20102;-69
2023/03/31 04:30:32;;;;;;;0.35;0.32;;;11.20;99.90;;;;;;4934273;28;20027;-70
2023/03/31 04:33:03;;;;;;;8.57;1.92;;;11.20;99.90;;;;;;4945759;29;20043;-69
2023/03/31 04:38:23;;;;;;;1.60;0.63;;;11.20;99.90;;;;;;4899587;28;20092;-69
2023/03/31 04:40:51;;;;;;;1.33;0.45;;;11.10;99.90;;;;;;4972358;28;20442;-69
2023/03/31 04:43:19;;;;;;;0.68;0.30;;;11.10;99.90;;;;;;4962149;28;20035;-71
2023/03/31 04:45:46;;;;;;;3.60;0.70;;;11.10;99.90;;;;;;4962885;28;20034;-69
2023/03/31 04:48:12;;;;;;;13.23;0.70;;;11.10;99.90;;;;;;4966969;28;20022;-69
2023/03/31 04:50:38;;;;;;;2.15;0.57;;;11.10;99.90;;;;;;4968272;28;20143;-70
2023/03/31 04:53:04;;;;;;;1.63;0.90;;;11.00;99.90;;;;;;4967971;28;20030;-71
2023/03/31 04:55:31;;;;;;;1.13;0.52;;;11.00;99.90;;;;;;4964205;28;20050;-69
2023/03/31 04:57:56;;;;;;;2.83;0.60;;;11.00;99.90;;;;;;4971280;28;20376;-69
2023/03/31 05:00:22;;;;;;;6.28;1.10;;;11.00;99.90;;;;;;4971098;28;20026;-69
2023/03/31 05:02:48;;;;;;;2.08;0.70;;;11.00;99.90;;;;;;4970794;28;20039;-69
2023/03/31 05:05:14;;;;;;;3.40;0.95;;;11.00;99.90;;;;;;4969766;28;20023;-69
2023/03/31 05:07:40;;;;;;;6.85;0.50;;;10.90;99.90;;;;;;4972165;28;20031;-69
2023/03/31 05:10:07;;;;;;;0.95;0.65;;;10.90;99.90;;;;;;4971416;28;20030;-70
2023/03/31 05:12:36;;;;;;;1.75;0.82;;;10.90;99.90;;;;;;4966978;28;20526;-70
2023/03/31 05:15:05;;;;;;;5.80;1.40;;;11.00;99.90;;;;;;4964332;28;20033;-67
2023/03/31 05:17:32;;;;;;;2.63;0.68;;;11.00;99.90;;;;;;4969598;28;20041;-70
2023/03/31 05:19:59;;;;;;;0.88;0.40;;;11.00;99.90;;;;;;4967028;28;20026;-69
2023/03/31 05:22:25;;;;;;;6.30;0.85;;;10.90;99.90;;;;;;4967222;28;20523;-70
2023/03/31 05:24:51;;;;;;;5.68;1.27;;;11.00;99.90;;;;;;4955100;28;20087;-70
2023/03/31 05:27:17;;;;;;;3.90;0.93;;;10.90;99.90;;;;;;4950578;28;20110;-70
2023/03/31 05:29:42;;;;;;;1.17;0.47;;;10.80;99.90;;;;;;4966391;28;20319;-70
2023/03/31 05:32:09;;;;;;;2.53;0.80;;;10.90;99.90;;;;;;4962671;28;20031;-69
2023/03/31 05:34:35;;;;;;;3.40;1.50;;;10.80;99.90;;;;;;4966711;28;20042;-68
2023/03/31 05:37:01;;;;;;;2.88;1.20;;;10.70;99.90;;;;;;4971219;28;20111;-69
2023/03/31 05:39:31;;;;;;;3.30;0.88;;;10.60;99.90;;;;;;4970393;28;20038;-69
2023/03/31 05:42:01;;;;;;;0.88;0.60;;;10.60;99.90;;;;;;4970969;28;20538;-69
2023/03/31 05:44:26;;;;;;;4.93;0.80;;;10.50;99.90;;;;;;4969152;28;20043;-69
2023/03/31 05:46:53;;;;;;;3.50;1.15;;;10.40;99.90;;;;;;4970321;28;20027;-68
2023/03/31 05:49:19;;;;;;;15.55;1.60;;;10.40;99.90;;;;;;4971490;28;20058;-69
2023/03/31 05:51:45;;;;;;;4.45;1.20;;;10.40;99.90;;;;;;4969378;28;20329;-69
2023/03/31 05:54:11;;;;;;;0.70;0.70;;;10.40;99.90;;;;;;4968992;28;20050;-69
2023/03/31 05:56:37;;;;;;;3.00;1.00;;;10.40;99.90;;;;;;4970062;28;20035;-68
2023/03/31 05:59:03;;;;;;;4.68;0.70;;;10.40;99.90;;;;;;4965432;28;20027;-68
2023/03/31 06:01:29;;;;;;;7.65;2.05;;;10.40;99.90;;;;;;4965656;28;20031;-68
2023/03/31 06:03:55;;;;;;;5.82;1.58;;;10.40;99.90;;;;;;4968724;28;20499;-68
2023/03/31 06:06:21;;;;;;;3.28;1.33;;;10.40;99.90;;;;;;4970897;28;20399;-67
2023/03/31 06:08:48;;;;;;;5.97;1.85;;;10.40;99.90;;;;;;4969621;28;20027;-67
2023/03/31 06:11:20;;;;;;;2.78;1.70;;;10.30;99.90;;;;;;4968182;28;20038;-67
2023/03/31 06:13:47;;;;;;;4.85;1.83;;;10.20;99.90;;;;;;4972046;28;20042;-68
2023/03/31 06:16:15;;;;;;;1.67;0.88;;;10.20;99.90;;;;;;4975565;28;20026;-68
2023/03/31 06:18:41;;;;;;;2.80;0.95;;;10.20;99.90;;;;;;4974549;28;20038;-68
2023/03/31 06:21:12;;;;;;;13.73;1.42;;;10.20;99.90;;;;;;4973036;28;20039;-67
2023/03/31 06:23:37;;;;;;;9.38;1.75;;;10.20;99.90;;;;;;4971947;28;20038;-69
2023/03/31 06:26:07;;;;;;;7.50;1.55;;;10.10;99.90;;;;;;4972856;28;20030;-68
2023/03/31 06:28:35;;;;;;;4.93;1.20;;;10.20;99.90;;;;;;4970656;28;20066;-68
2023/03/31 06:31:04;;;;;;;6.72;1.50;;;10.20;99.90;;;;;;4973908;28;20045;-67
2023/03/31 06:33:32;;;;;;;4.85;1.15;;;10.20;99.90;;;;;;4973763;28;20133;-68
2023/03/31 06:36:00;;;;;;;7.82;2.75;;;10.30;99.90;;;;;;4973717;28;20434;-68
2023/03/31 06:38:26;;;;;;;3.75;1.80;;;10.30;99.90;;;;;;4973305;28;20046;-68
2023/03/31 06:40:53;;;;;;;1.65;0.98;;;10.30;99.90;;;;;;4973582;28;20034;-68
2023/03/31 06:43:19;;;;;;;1.90;0.90;;;10.30;99.90;;;;;;4973072;28;20487;-69
2023/03/31 06:45:45;;;;;;;7.07;1.42;;;10.30;99.90;;;;;;4978346;28;20055;-69
2023/03/31 06:48:11;;;;;;;1.48;1.05;;;10.30;99.90;;;;;;4973408;28;20133;-69
2023/03/31 06:50:38;;;;;;;8.63;2.92;;;10.30;99.90;;;;;;4973402;28;20510;-69
2023/03/31 06:53:04;;;;;;;7.45;1.65;;;10.30;99.90;;;;;;4971420;28;20030;-69
2023/03/31 06:55:32;;;;;;;6.45;1.67;;;10.40;99.90;;;;;;4956177;28;20090;-69
2023/03/31 06:57:58;;;;;;;7.00;2.38;;;10.40;99.90;;;;;;4970616;28;20081;-69
2023/03/31 07:00:25;;;;;;;2.47;1.38;;;10.40;99.90;;;;;;4973290;28;20027;-69
2023/03/31 07:02:52;;;;;;;5.03;2.47;;;10.50;99.90;;;;;;4968443;28;20063;-68
2023/03/31 07:05:25;;;;;;;3.95;1.25;;;10.50;99.90;;;;;;4968591;28;20043;-69
2023/03/31 07:07:52;;;;;;;8.10;2.00;;;10.60;99.90;;;;;;4973350;28;20034;-69
2023/03/31 07:10:18;;;;;;;3.15;1.80;;;10.60;99.90;;;;;;4972820;28;20041;-68
2023/03/31 07:12:44;;;;;;;4.90;1.80;;;10.60;99.90;;;;;;4956469;28;20027;-69
2023/03/31 07:15:10;;;;;;;3.70;1.67;;;10.60;99.90;;;;;;4982870;28;20027;-69
2023/03/31 07:17:40;;;;;;;6.93;1.85;;;10.60;99.90;;;;;;4962367;28;20769;-68
2023/03/31 07:20:13;;;;;;;3.83;2.38;;;10.60;99.90;;;;;;4968902;28;20023;-69
2023/03/31 07:22:40;;;;;;;4.30;2.40;;;10.50;99.90;;;;;;4944561;28;20036;-70
2023/03/31 07:25:09;;;;;;;14.30;2.00;;;10.50;99.90;;;;;;4968626;28;20439;-70
2023/03/31 07:27:36;;;;;;;5.78;2.38;;;10.50;99.90;;;;;;4964055;28;20034;-69
2023/03/31 07:30:09;;;;;;;2.75;1.27;;;10.60;99.90;;;;;;4972671;28;20033;-69
2023/03/31 07:32:39;;;;;;;8.77;2.80;;;10.60;99.90;;;;;;4971556;28;20118;-69
2023/03/31 07:35:06;;;;;;;4.65;2.00;;;10.70;99.90;;;;;;4972119;28;20026;-70
2023/03/31 07:37:42;;;;;;;2.05;1.45;;;10.80;99.90;;;;;;4971682;28;20125;-69
2023/03/31 07:40:21;;;;;;;3.60;2.08;;;10.90;99.90;;;;;;4973684;28;20031;-69
2023/03/31 07:42:48;;;;;;;7.75;2.97;;;10.90;99.90;;;;;;4972139;28;20031;-69
2023/03/31 07:45:15;;;;;;;9.80;2.90;;;11.10;99.90;;;;;;4981602;28;20030;-69
2023/03/31 07:47:43;;;;;;;5.72;2.13;;;11.10;99.90;;;;;;4977375;28;20035;-69
2023/03/31 07:50:09;;;;;;;4.10;1.75;;;11.30;99.90;;;;;;4972332;28;20097;-69
2023/03/31 07:52:35;;;;;;;3.35;1.25;;;11.40;99.90;;;;;;4972659;28;20502;-69
2023/03/31 07:55:02;;;;;;;1.77;1.35;;;11.50;99.90;;;;;;4971887;28;20117;-68
2023/03/31 07:57:28;;;;;;;2.95;1.70;;;11.60;99.90;;;;;;4972334;28;20093;-68
2023/03/31 07:59:53;;;;;;;3.72;2.03;;;11.70;99.90;;;;;;4973399;28;20035;-69
2023/03/31 08:02:19;;;;;;;4.63;1.90;;;11.80;99.90;;;;;;4954373;28;20069;-69
2023/03/31 08:04:46;;;;;;;4.65;1.85;;;11.80;99.90;;;;;;4972717;28;20034;-69
2023/03/31 08:07:15;;;;;;;4.65;1.35;;;11.70;99.90;;;;;;4971015;28;20418;-69
2023/03/31 08:09:44;;;;;;;3.97;2.15;;;11.70;99.90;;;;;;4955999;28;20031;-69
2023/03/31 08:12:11;;;;;;;2.40;1.13;;;11.60;99.90;;;;;;4971115;28;20035;-70
2023/03/31 08:14:38;;;;;;;5.45;2.03;;;11.50;99.90;;;;;;4976971;28;20022;-69
2023/03/31 08:17:03;;;;;;;5.93;1.98;;;11.50;99.90;;;;;;4983001;28;20026;-69
2023/03/31 08:19:29;;;;;;;9.23;2.15;;;11.50;99.90;;;;;;4972748;28;20096;-70
2023/03/31 08:21:55;;;;;;;7.55;2.88;;;11.50;99.90;;;;;;4971986;28;20659;-69
2023/03/31 08:24:21;;;;;;;1.58;1.17;;;11.50;99.90;;;;;;4971254;28;20034;-70
2023/03/31 08:26:47;;;;;;;4.47;1.25;;;11.50;99.90;;;;;;4970586;28;20034;-70
2023/03/31 08:29:13;;;;;;;3.28;1.52;;;11.60;99.90;;;;;;4971616;28;20062;-69
2023/03/31 08:31:39;;;;;;;5.97;1.42;;;11.60;99.90;;;;;;4971242;28;20114;-69
2023/03/31 08:34:05;;;;;;;3.35;1.15;;;11.70;99.90;;;;;;4971633;28;20130;-69
2023/03/31 08:36:32;;;;;;;7.93;1.60;;;11.70;99.90;;;;;;4971545;28;20077;-69
2023/03/31 08:38:58;;;;;;;7.03;1.13;;;11.80;99.90;;;;;;4971311;28;20031;-69
2023/03/31 08:44:35;;;;;;;4.00;1.55;;;11.90;99.90;;;;;;5023668;28;20033;-72
2023/03/31 08:47:04;;;;;;;3.80;2.13;;;12.00;99.90;;;;;;5028333;28;20030;-71
2023/03/31 08:49:54;;;;;;;2.67;1.42;;;12.20;99.90;;;;;;5026756;28;20386;-71
2023/03/31 08:52:33;;;;;;;2.33;1.10;;;12.20;99.90;;;;;;5025818;28;20498;-71
2023/03/31 08:55:09;;;;;;;5.88;1.70;;;12.30;99.90;;;;;;5029372;28;20477;-70
2023/03/31 08:57:50;;;;;;;3.80;1.50;;;12.50;99.90;;;;;;5023824;28;20519;-68
2023/03/31 09:00:17;;;;;;;3.22;1.30;;;12.50;99.90;;;;;;5041409;28;20025;-70
2023/03/31 09:03:17;;;;;;;5.15;2.03;;;12.30;99.90;;;;;;5035077;28;20045;-71
2023/03/31 09:05:58;;;;;;;9.15;1.90;;;12.20;99.90;;;;;;5041365;28;20051;-70
2023/03/31 09:08:41;;;;;;;;;;;12.20;99.90;;;;;;5041540;28;20595;-69
2023/03/31 09:11:12;;;;;;;4.85;2.10;;;12.20;99.90;;;;;;5037727;28;19951;-69
2023/03/31 09:13:41;;;;;;;3.55;1.38;;;12.20;99.90;;;;;;5038576;28;20048;-68
2023/03/31 09:16:22;;;;;;;5.68;2.60;;;12.10;99.90;;;;;;5044253;28;20032;-68
2023/03/31 09:18:49;;;;;;;;;;;12.20;99.90;;;;;;5040014;28;20517;-69
2023/03/31 09:21:29;;;;;;;4.03;1.50;;;12.20;99.90;;;;;;5045924;28;19919;-69
2023/03/31 09:24:07;;;;;;;3.47;2.17;;;12.20;99.90;;;;;;5034122;28;20030;-68
2023/03/31 09:26:41;;;;;;;11.55;2.10;;;12.20;99.90;;;;;;5048211;28;20032;-69
2023/03/31 09:29:28;;;;;;;2.72;0.80;;;12.10;99.90;;;;;;5016413;28;20044;-69
2023/03/31 09:32:00;;;;;;;6.63;1.73;;;12.10;99.90;;;;;;5028478;28;20021;-69
2023/03/31 09:34:32;;;;;;;3.75;1.20;;;12.20;99.90;;;;;;5035150;28;20500;-70
2023/03/31 09:36:58;;;;;;;5.32;1.23;;;12.20;99.90;;;;;;5046311;28;20033;-70
2023/03/31 09:39:23;;;;;;;9.13;1.70;;;12.00;99.90;;;;;;5035105;28;20389;-70
2023/03/31 09:41:54;;;;;;;1.85;0.55;;;11.50;99.90;;;;;;5049411;28;20024;-71
2023/03/31 09:44:44;;;;;;;2.10;0.60;;;10.50;99.90;;;;;;5032918;28;20029;-69
2023/03/31 09:47:42;;;;;;;2.08;0.90;;;10.00;99.90;;;;;;5008915;28;20036;-68
2023/03/31 09:50:09;;;;;;;7.40;1.40;;;9.90;99.90;;;;;;5031449;28;20033;-69
2023/03/31 09:52:55;;;;;;;6.07;0.80;;;9.80;99.90;;;;;;5009209;28;20130;-69
2023/03/31 09:55:35;;;;;;;1.95;1.08;;;9.70;99.90;;;;;;5041967;28;20057;-69
2023/03/31 09:58:05;;;;;;;4.88;0.60;;;9.80;99.90;;;;;;5040917;28;20032;-69
2023/03/31 10:00:33;;;;;;;7.35;1.48;;;9.70;99.90;;;;;;5040138;28;20033;-69
2023/03/31 10:03:06;;;;;;;2.92;0.60;;;9.80;99.90;;;;;;5037957;28;20056;-69
2023/03/31 10:05:36;;;;;;;7.43;1.13;;;9.90;99.90;;;;;;5040557;28;20017;-69
2023/03/31 10:08:37;;;;;;;5.20;2.17;;;10.00;99.90;;;;;;5038668;28;20025;-69
2023/03/31 10:11:02;;;;;;;2.90;1.85;;;10.20;99.90;;;;;;5020360;28;20621;-70
2023/03/31 10:13:40;;;;;;;5.93;1.30;;;10.30;99.90;;;;;;5038912;28;20043;-69
2023/03/31 10:16:11;;;;;;;6.18;0.60;;;10.40;99.90;;;;;;5026997;28;20051;-69
2023/03/31 10:18:41;;;;;;;2.83;1.08;;;10.60;99.90;;;;;;5026394;28;20033;-70
2023/03/31 10:21:26;;;;;;;2.80;1.70;;;10.80;99.90;;;;;;5031863;28;20463;-69
2023/03/31 10:23:53;;;;;;;2.67;1.15;;;11.00;99.90;;;;;;5017658;28;20030;-69
2023/03/31 10:26:27;;;;;;;3.08;1.35;;;11.10;99.90;;;;;;5011672;28;20109;-69
2023/03/31 10:28:54;;;;;;;2.63;0.77;;;11.20;99.90;;;;;;5036399;28;20078;-69
2023/03/31 10:31:26;;;;;;;9.70;1.05;;;11.30;99.90;;;;;;5013034;28;20026;-69
2023/03/31 10:33:52;;;;;;;0.77;0.57;;;11.40;99.90;;;;;;5032586;28;20029;-69
2023/03/31 10:36:28;;;;;;;4.05;1.42;;;11.50;99.90;;;;;;5047732;28;20040;-70
2023/03/31 10:38:55;;;;;;;2.97;1.20;;;11.50;99.90;;;;;;5035562;28;20112;-69
2023/03/31 10:41:26;;;;;;;2.05;0.63;;;11.50;99.90;;;;;;5032232;28;20180;-69
2023/03/31 10:43:58;;;;;;;2.13;0.85;;;11.70;99.90;;;;;;5016937;28;20367;-68
2023/03/31 10:46:51;;;;;;;0.93;0.57;;;11.90;99.90;;;;;;5031288;28;20025;-69
2023/03/31 10:49:20;;;;;;;0.73;0.35;;;12.20;99.90;;;;;;5044384;28;20045;-69
2023/03/31 10:51:56;;;;;;;3.28;1.30;;;12.20;99.90;;;;;;5047112;28;20052;-69
2023/03/31 10:54:23;;;;;;;7.05;1.15;;;12.30;99.90;;;;;;5033756;28;20112;-69
2023/03/31 10:57:00;;;;;;;4.20;1.75;;;12.30;99.90;;;;;;5049834;28;20021;-69
2023/03/31 11:00:04;;;;;;;1.23;0.85;;;12.20;99.90;;;;;;5037458;28;20021;-68
2023/03/31 11:02:47;;;;;;;2.70;1.10;;;12.30;99.90;;;;;;5041719;28;20065;-69
2023/03/31 11:05:41;;;;;;;9.90;1.13;;;12.30;99.90;;;;;;5043378;28;20511;-70
2023/03/31 11:08:32;;;;;;;1.17;0.20;;;11.90;99.90;;;;;;5040616;28;20485;-70
2023/03/31 11:11:44;;;;;;;5.50;1.00;;;11.60;99.90;;;;;;5029677;28;20033;-73
2023/03/31 11:14:18;;;;;;;1.75;0.65;;;11.60;99.90;;;;;;5033572;28;20032;-70
2023/03/31 11:17:04;;;;;;;4.00;0.55;;;11.60;99.90;;;;;;5026156;28;20392;-70
2023/03/31 11:20:13;;;;;;;2.17;0.80;;;11.70;99.90;;;;;;5029283;28;20409;-71
2023/03/31 11:23:11;;;;;;;1.02;0.47;;;11.70;99.90;;;;;;4989941;28;20532;-69
2023/03/31 11:25:49;;;;;;;2.95;0.70;;;11.60;99.90;;;;;;5043161;28;20061;-70
2023/03/31 11:28:42;;;;;;;3.30;0.82;;;11.50;99.90;;;;;;5045052;28;20037;-70
2023/03/31 11:31:47;;;;;;;4.40;0.88;;;11.50;99.90;;;;;;5025643;28;20037;-69
2023/03/31 11:34:41;;;;;;;5.00;0.95;;;11.50;99.90;;;;;;5035480;28;20428;-69
2023/03/31 11:37:40;;;;;;;2.13;0.28;;;11.50;99.90;;;;;;5029279;28;20025;-70
2023/03/31 11:40:22;;;;;;;1.85;0.43;;;11.70;99.90;;;;;;5034760;28;20033;-69
2023/03/31 11:43:05;;;;;;;10.38;1.23;;;12.20;99.90;;;;;;5012735;28;20040;-70
2023/03/31 11:45:50;;;;;;;1.88;0.55;;;12.50;99.90;;;;;;5029262;28;20013;-70
2023/03/31 11:48:50;;;;;;;0.98;0.73;;;13.00;99.90;;;;;;5042790;28;20048;-70
2023/03/31 11:51:52;;;;;;;1.38;0.40;;;13.20;99.90;;;;;;5038947;28;20500;-71
2023/03/31 11:54:45;;;;;;;2.42;0.77;;;13.40;99.90;;;;;;5039069;28;20524;-70
2023/03/31 11:57:35;;;;;;;1.92;0.43;;;12.90;99.90;;;;;;5028022;28;20034;-70
2023/03/31 12:00:47;;;;;;;3.78;0.70;;;12.90;99.90;;;;;;5031700;28;20060;-70
2023/03/31 12:03:24;;;;;;;0.45;0.17;;;12.70;99.90;;;;;;5033574;28;20045;-70
2023/03/31 12:06:01;;;;;;;5.25;0.57;;;12.70;99.90;;;;;;5042991;28;20029;-70
2023/03/31 12:09:31;;;;;;;4.53;0.75;;;12.50;99.90;;;;;;5039307;28;20108;-71
2023/03/31 12:12:06;;;;;;;2.90;0.80;;;12.10;99.90;;;;;;4952093;28;20032;-70
2023/03/31 12:14:54;;;;;;;0.38;0.25;;;11.80;99.90;;;;;;4979142;28;20447;-70
2023/03/31 12:17:28;;;;;;;2.78;0.88;;;11.80;99.90;;;;;;5017681;28;20054;-70
2023/03/31 12:20:09;;;;;;;0.93;0.52;;;12.00;99.90;;;;;;5032363;28;20029;-70
2023/03/31 12:22:39;;;;;;;;;;;12.10;99.90;;;;;;5011522;28;20037;-71
2023/03/31 12:25:12;;;;;;;1.88;0.57;;;12.30;99.90;;;;;;5041908;28;20368;-71
2023/03/31 12:27:40;;;;;;;1.33;0.40;;;12.50;99.90;;;;;;5039543;28;20425;-70
2023/03/31 12:30:19;;;;;;;5.15;1.42;;;12.60;99.90;;;;;;5041314;28;20025;-70
2023/03/31 12:33:12;;;;;;;6.50;0.52;;;12.80;99.90;;;;;;5041328;28;20090;-69
2023/03/31 12:36:03;;;;;;;1.80;0.40;;;12.90;99.90;;;;;;5041851;28;20053;-70
2023/03/31 12:39:07;;;;;;;1.92;0.52;;;13.20;99.90;;;;;;5038791;28;20029;-70
2023/03/31 12:41:56;;;;;;;0.47;0.28;;;13.20;99.90;;;;;;5032845;28;20032;-70
2023/03/31 12:44:33;;;;;;;2.20;0.20;;;13.40;99.90;;;;;;5035063;28;20124;-70
2023/03/31 12:47:26;;;;;;;1.23;0.10;;;13.50;99.90;;;;;;4995777;28;20467;-71
2023/03/31 12:50:18;;;;;;;0.75;0.20;;;13.80;99.90;;;;;;5030200;28;20514;-71
2023/03/31 12:53:04;;;;;;;1.02;0.30;;;13.90;99.90;;;;;;5028910;28;20500;-70
2023/03/31 12:55:44;;;;;;;0.20;0.10;;;13.90;99.90;;;;;;5041165;28;20051;-70
2023/03/31 12:58:33;;;;;;;0.13;0.08;;;14.10;99.90;;;;;;5041189;28;20030;-70
2023/03/31 13:01:22;;;;;;;2.10;0.10;;;13.70;99.90;;;;;;5036897;28;20044;-70
2023/03/31 13:04:25;;;;;;;0.25;0.10;;;13.70;99.90;;;;;;5035528;28;20040;-70
2023/03/31 13:06:58;;;;;;;0.15;0.08;;;13.60;99.90;;;;;;5030484;28;20098;-69
2023/03/31 13:09:30;;;;;;;0.63;0.43;;;13.60;99.90;;;;;;5035327;28;20028;-69
2023/03/31 13:11:56;;;;;;;7.28;1.08;;;13.60;99.90;;;;;;5010328;28;20061;-69
2023/03/31 13:14:35;;;;;;;0.10;0.00;;;13.70;99.90;;;;;;5019617;28;20041;-69
2023/03/31 13:17:29;;;;;;;2.88;0.30;;;13.70;99.90;;;;;;5009966;28;20040;-68
2023/03/31 13:20:16;;;;;;;8.45;0.70;;;13.60;99.90;;;;;;5017605;28;20491;-68
2023/03/31 13:22:47;;;;;;;0.90;0.40;;;13.70;99.90;;;;;;5040301;28;20664;-69
2023/03/31 13:25:31;;;;;;;1.27;0.38;;;13.80;99.90;;;;;;5040664;28;20044;-69
2023/03/31 13:28:20;;;;;;;1.17;0.52;;;13.70;99.90;;;;;;5040550;28;20033;-69
2023/03/31 13:31:03;;;;;;;0.65;0.40;;;13.80;99.90;;;;;;5040807;28;20112;-69
2023/03/31 13:33:38;;;;;;;0.68;0.20;;;14.00;99.90;;;;;;5021586;28;20017;-69
2023/03/31 13:36:31;;;;;;;1.13;0.38;;;14.00;99.90;;;;;;5023982;28;20040;-69